Time,TemperatureF,DewpointF,PressureIn,WindDirection,WindDirectionDegrees,WindSpeedMPH,WindSpeedGustMPH,Humidity,HourlyPrecipIn,Conditions,Clouds,dailyrainin,SolarRadiationWatts/m^2,SoftwareType,DateUTC
2013-08-04 00:02:00,70.0,52.0,-100.00,NNW,336,0.0,0.0,53,0.00,,,0.00,0.000000,,2013-08-04 07:02:00,
2013-08-04 00:33:00,68.0,51.0,-100.00,NNW,343,0.0,0.0,55,0.00,,,0.00,0.000000,,2013-08-04 07:33:00,
2013-08-04 00:43:00,68.0,51.0,-100.00,NNW,343,0.0,0.0,55,0.00,,,0.00,0.000000,,2013-08-04 07:43:00,
2013-08-04 00:53:00,68.0,51.0,-100.00,NNW,343,0.0,0.0,55,0.00,,,0.00,0.000000,,2013-08-04 07:53:00,
2013-08-04 01:02:00,68.0,51.0,-100.00,NNW,343,0.0,0.0,55,0.00,,,0.00,0.000000,,2013-08-04 08:02:00,
2013-08-04 01:33:00,69.0,52.0,-100.00,NNW,345,0.0,0.0,54,0.00,,,0.00,0.000000,,2013-08-04 08:33:00,
2013-08-04 01:43:00,69.0,52.0,-100.00,NNW,345,0.0,0.0,54,0.00,,,0.00,0.000000,,2013-08-04 08:43:00,
2013-08-04 01:53:00,69.0,52.0,-100.00,NNW,345,0.0,0.0,54,0.00,,,0.00,0.000000,,2013-08-04 08:53:00,
2013-08-04 02:02:00,69.0,52.0,-100.00,NNW,345,0.0,0.0,54,0.00,,,0.00,0.000000,,2013-08-04 09:02:00,
2013-08-04 02:32:00,69.0,52.0,-100.00,North,356,0.0,0.0,54,0.00,,,0.00,0.000000,,2013-08-04 09:32:00,
2013-08-04 02:43:00,69.0,52.0,-100.00,North,356,0.0,0.0,54,0.00,,,0.00,0.000000,,2013-08-04 09:43:00,
2013-08-04 02:52:00,69.0,52.0,-100.00,North,356,0.0,0.0,54,0.00,,,0.00,0.000000,,2013-08-04 09:52:00,
2013-08-04 03:02:00,69.0,52.0,-100.00,North,356,0.0,0.0,54,0.00,,,0.00,0.000000,,2013-08-04 10:02:00,
2013-08-04 03:32:00,69.0,51.0,-100.00,NNW,338,0.0,0.0,53,0.00,,,0.00,0.000000,,2013-08-04 10:32:00,
2013-08-04 03:43:00,69.0,51.0,-100.00,NNW,338,0.0,0.0,53,0.00,,,0.00,0.000000,,2013-08-04 10:43:00,
2013-08-04 03:53:00,69.0,51.0,-100.00,NNW,338,0.0,0.0,53,0.00,,,0.00,0.000000,,2013-08-04 10:53:00,
2013-08-04 04:02:00,69.0,51.0,-100.00,NNW,338,0.0,0.0,53,0.00,,,0.00,0.000000,,2013-08-04 11:02:00,
2013-08-04 04:32:00,69.0,51.0,-100.00,NNW,346,0.0,0.0,53,0.00,,,0.00,0.000000,,2013-08-04 11:32:00,
2013-08-04 04:42:00,69.0,51.0,-100.00,NNW,346,0.0,0.0,53,0.00,,,0.00,0.000000,,2013-08-04 11:42:00,
2013-08-04 04:53:00,69.0,51.0,-100.00,NNW,346,0.0,0.0,53,0.00,,,0.00,0.000000,,2013-08-04 11:53:00,
2013-08-04 05:02:00,69.0,51.0,-100.00,NNW,346,0.0,0.0,53,0.00,,,0.00,0.000000,,2013-08-04 12:02:00,
2013-08-04 05:33:00,68.0,51.0,-100.00,NNW,343,0.0,0.0,54,0.00,,,0.00,0.000000,,2013-08-04 12:33:00,
2013-08-04 05:43:00,68.0,51.0,-100.00,NNW,343,0.0,0.0,54,0.00,,,0.00,0.000000,,2013-08-04 12:43:00,
2013-08-04 05:53:00,68.0,51.0,-100.00,NNW,343,0.0,0.0,54,0.00,,,0.00,0.000000,,2013-08-04 12:53:00,
2013-08-04 06:02:00,68.0,51.0,-100.00,NNW,343,0.0,0.0,54,0.00,,,0.00,0.000000,,2013-08-04 13:02:00,
2013-08-04 06:32:00,68.0,51.0,-100.00,NNW,340,0.0,0.0,54,0.00,,,0.00,4.000000,,2013-08-04 13:32:00,
2013-08-04 06:43:00,68.0,51.0,-100.00,NNW,340,0.0,0.0,54,0.00,,,0.00,4.000000,,2013-08-04 13:43:00,
2013-08-04 06:52:00,68.0,51.0,-100.00,NNW,340,0.0,0.0,54,0.00,,,0.00,4.000000,,2013-08-04 13:52:00,
2013-08-04 07:02:00,68.0,51.0,-100.00,NNW,340,0.0,0.0,54,0.00,,,0.00,4.000000,,2013-08-04 14:02:00,
2013-08-04 07:33:00,68.0,51.0,-100.00,NNW,335,0.0,0.0,54,0.00,,,0.00,29.000000,,2013-08-04 14:33:00,
2013-08-04 07:43:00,68.0,51.0,-100.00,NNW,335,0.0,0.0,54,0.00,,,0.00,29.000000,,2013-08-04 14:43:00,
2013-08-04 07:53:00,68.0,51.0,-100.00,NNW,335,0.0,0.0,54,0.00,,,0.00,29.000000,,2013-08-04 14:53:00,
2013-08-04 08:01:00,68.0,51.0,-100.00,NNW,335,0.0,0.0,54,0.00,,,0.00,29.000000,,2013-08-04 15:01:00,
2013-08-04 08:32:00,73.0,53.0,-100.00,North,352,0.0,0.0,49,0.00,,,0.00,127.000000,,2013-08-04 15:32:00,
2013-08-04 08:43:00,73.0,53.0,-100.00,North,352,0.0,0.0,49,0.00,,,0.00,127.000000,,2013-08-04 15:43:00,
2013-08-04 08:53:00,73.0,53.0,-100.00,North,352,0.0,0.0,49,0.00,,,0.00,127.000000,,2013-08-04 15:53:00,
2013-08-04 09:01:00,73.0,53.0,-100.00,North,352,0.0,0.0,49,0.00,,,0.00,127.000000,,2013-08-04 16:01:00,
2013-08-04 09:33:00,83.0,53.0,-100.00,NNW,342,0.0,0.0,36,-99.99,,,0.00,413.000000,,2013-08-04 16:33:00,
2013-08-04 09:42:00,83.0,53.0,-100.00,NNW,342,0.0,0.0,36,-99.99,,,0.00,413.000000,,2013-08-04 16:42:00,
2013-08-04 09:53:00,83.0,53.0,-100.00,NNW,342,0.0,0.0,36,-99.99,,,0.00,413.000000,,2013-08-04 16:53:00,
2013-08-04 10:02:00,83.0,53.0,-100.00,NNW,342,0.0,0.0,36,-99.99,,,0.00,413.000000,,2013-08-04 17:02:00,
2013-08-04 10:32:00,90.0,51.0,-100.00,South,180,0.0,0.0,27,0.00,,,0.00,673.000000,,2013-08-04 17:32:00,
2013-08-04 10:43:00,90.0,51.0,-100.00,South,180,0.0,0.0,27,0.00,,,0.00,673.000000,,2013-08-04 17:43:00,
2013-08-04 10:53:00,90.0,51.0,-100.00,South,180,0.0,0.0,27,0.00,,,0.00,673.000000,,2013-08-04 17:53:00,
2013-08-04 11:02:00,90.0,51.0,-100.00,South,180,0.0,0.0,27,0.00,,,0.00,673.000000,,2013-08-04 18:02:00,
2013-08-04 11:33:00,92.0,53.0,-100.00,SSW,192,0.0,0.0,27,0.00,,,0.00,697.000000,,2013-08-04 18:33:00,
2013-08-04 11:43:00,92.0,53.0,-100.00,SSW,192,0.0,0.0,27,0.00,,,0.00,697.000000,,2013-08-04 18:43:00,
2013-08-04 11:52:00,92.0,53.0,-100.00,SSW,192,0.0,0.0,27,0.00,,,0.00,697.000000,,2013-08-04 18:52:00,
2013-08-04 12:02:00,92.0,53.0,-100.00,SSW,192,0.0,0.0,27,0.00,,,0.00,697.000000,,2013-08-04 19:02:00,
2013-08-04 12:33:00,92.0,50.0,-100.00,SSW,211,0.0,0.0,24,0.00,,,-99.99,810.000000,,2013-08-04 19:33:00,
2013-08-04 12:44:00,92.0,50.0,-100.00,SSW,211,0.0,0.0,24,0.00,,,-99.99,810.000000,,2013-08-04 19:44:00,
2013-08-04 12:53:00,92.0,50.0,-100.00,SSW,211,0.0,0.0,24,0.00,,,-99.99,810.000000,,2013-08-04 19:53:00,
2013-08-04 13:02:00,92.0,50.0,-100.00,SSW,211,0.0,0.0,24,0.00,,,-99.99,810.000000,,2013-08-04 20:02:00,
2013-08-04 13:33:00,92.0,51.0,-100.00,SSE,149,0.0,0.0,25,0.00,,,-99.99,795.000000,,2013-08-04 20:33:00,
2013-08-04 13:43:00,92.0,51.0,-100.00,SSE,149,0.0,0.0,25,0.00,,,-99.99,795.000000,,2013-08-04 20:43:00,
2013-08-04 13:53:00,92.0,51.0,-100.00,SSE,149,0.0,0.0,25,0.00,,,-99.99,795.000000,,2013-08-04 20:53:00,
2013-08-04 14:02:00,92.0,51.0,-100.00,SSE,149,0.0,0.0,25,0.00,,,-99.99,795.000000,,2013-08-04 21:02:00,
2013-08-04 14:32:00,91.0,50.0,-100.00,SSE,156,0.0,0.0,25,0.00,,,0.00,548.000000,,2013-08-04 21:32:00,
2013-08-04 14:43:00,91.0,50.0,-100.00,SSE,156,0.0,0.0,25,0.00,,,0.00,548.000000,,2013-08-04 21:43:00,
2013-08-04 14:53:00,91.0,50.0,-100.00,SSE,156,0.0,0.0,25,0.00,,,0.00,548.000000,,2013-08-04 21:53:00,
2013-08-04 15:01:00,91.0,50.0,-100.00,SSE,156,0.0,0.0,25,0.00,,,0.00,548.000000,,2013-08-04 22:01:00,
2013-08-04 15:32:00,86.0,49.0,-100.00,West,279,0.0,0.0,28,0.00,,,0.00,517.000000,,2013-08-04 22:32:00,
2013-08-04 15:43:00,86.0,49.0,-100.00,West,279,0.0,0.0,28,0.00,,,0.00,517.000000,,2013-08-04 22:43:00,
2013-08-04 15:53:00,86.0,49.0,-100.00,West,279,0.0,0.0,28,0.00,,,0.00,517.000000,,2013-08-04 22:53:00,
2013-08-04 16:02:00,86.0,49.0,-100.00,West,279,0.0,0.0,28,0.00,,,0.00,517.000000,,2013-08-04 23:02:00,
2013-08-04 16:23:00,87.0,49.0,-100.00,NNW,344,0.0,0.0,27,0.00,,,0.00,389.000000,,2013-08-04 23:23:00,
2013-08-04 16:32:00,87.0,49.0,-100.00,NNW,344,0.0,0.0,27,0.00,,,0.00,389.000000,,2013-08-04 23:32:00,
2013-08-04 16:43:00,87.0,49.0,-100.00,NNW,344,0.0,0.0,27,0.00,,,0.00,389.000000,,2013-08-04 23:43:00,
2013-08-04 16:53:00,87.0,49.0,-100.00,NNW,344,0.0,0.0,27,0.00,,,0.00,389.000000,,2013-08-04 23:53:00,
2013-08-04 17:01:00,87.0,49.0,-100.00,NNW,344,0.0,0.0,27,0.00,,,0.00,389.000000,,2013-08-05 00:01:00,
2013-08-04 17:22:00,84.0,49.0,-100.00,NNW,337,0.0,0.0,30,0.00,,,0.00,282.000000,,2013-08-05 00:22:00,
2013-08-04 17:33:00,84.0,49.0,-100.00,NNW,337,0.0,0.0,30,0.00,,,0.00,282.000000,,2013-08-05 00:33:00,
2013-08-04 17:42:00,84.0,49.0,-100.00,NNW,337,0.0,0.0,30,0.00,,,0.00,282.000000,,2013-08-05 00:42:00,
2013-08-04 17:52:00,84.0,49.0,-100.00,NNW,337,0.0,0.0,30,0.00,,,0.00,282.000000,,2013-08-05 00:52:00,
2013-08-04 18:02:00,84.0,49.0,-100.00,NNW,337,0.0,0.0,30,0.00,,,0.00,282.000000,,2013-08-05 01:02:00,
2013-08-04 18:33:00,80.0,51.0,-100.00,SE,142,0.0,0.0,36,0.00,,,0.00,75.000000,,2013-08-05 01:33:00,
2013-08-04 18:42:00,80.0,51.0,-100.00,SE,142,0.0,0.0,36,0.00,,,0.00,75.000000,,2013-08-05 01:42:00,
2013-08-04 18:52:00,80.0,51.0,-100.00,SE,142,0.0,0.0,36,0.00,,,0.00,75.000000,,2013-08-05 01:52:00,
2013-08-04 19:02:00,80.0,51.0,-100.00,SE,142,0.0,0.0,36,0.00,,,0.00,75.000000,,2013-08-05 02:02:00,
2013-08-04 19:43:00,76.0,54.0,-100.00,SSW,209,0.0,0.0,46,0.00,,,0.00,43.000000,,2013-08-05 02:43:00,
2013-08-04 19:53:00,76.0,54.0,-100.00,SSW,209,0.0,0.0,46,0.00,,,0.00,43.000000,,2013-08-05 02:53:00,
2013-08-04 20:02:00,76.0,54.0,-100.00,SSW,209,0.0,0.0,46,0.00,,,0.00,43.000000,,2013-08-05 03:02:00,
2013-08-04 20:42:00,73.0,52.0,-100.00,NNW,328,0.0,0.0,47,0.00,,,0.00,5.000000,,2013-08-05 03:42:00,
2013-08-04 20:52:00,73.0,52.0,-100.00,NNW,328,0.0,0.0,47,0.00,,,0.00,5.000000,,2013-08-05 03:52:00,
2013-08-04 21:02:00,73.0,52.0,-100.00,NNW,328,0.0,0.0,47,0.00,,,0.00,5.000000,,2013-08-05 04:02:00,
2013-08-04 21:32:00,71.0,53.0,-100.00,NNW,341,0.0,0.0,53,0.00,,,0.00,0.000000,,2013-08-05 04:32:00,
2013-08-04 21:43:00,71.0,53.0,-100.00,NNW,341,0.0,0.0,53,0.00,,,0.00,0.000000,,2013-08-05 04:43:00,
2013-08-04 21:52:00,71.0,53.0,-100.00,NNW,341,0.0,0.0,53,0.00,,,0.00,0.000000,,2013-08-05 04:52:00,
2013-08-04 22:01:00,71.0,53.0,-100.00,NNW,341,0.0,0.0,53,0.00,,,0.00,0.000000,,2013-08-05 05:01:00,
2013-08-04 22:32:00,71.0,52.0,-100.00,North,351,0.0,0.0,52,0.00,,,0.00,0.000000,,2013-08-05 05:32:00,
2013-08-04 22:43:00,71.0,52.0,-100.00,North,351,0.0,0.0,52,0.00,,,0.00,0.000000,,2013-08-05 05:43:00,
2013-08-04 22:53:00,71.0,52.0,-100.00,North,351,0.0,0.0,52,0.00,,,0.00,0.000000,,2013-08-05 05:53:00,
2013-08-04 23:01:00,71.0,52.0,-100.00,North,351,0.0,0.0,52,0.00,,,0.00,0.000000,,2013-08-05 06:01:00,
2013-08-04 23:32:00,72.0,53.0,-100.00,North,1,0.0,0.0,52,0.00,,,0.00,0.000000,,2013-08-05 06:32:00,
2013-08-04 23:43:00,72.0,53.0,-100.00,North,1,0.0,0.0,52,0.00,,,0.00,0.000000,,2013-08-05 06:43:00,
2013-08-04 23:52:00,72.0,53.0,-100.00,North,1,0.0,0.0,52,0.00,,,0.00,0.000000,,2013-08-05 06:52:00,